Terminal Aerodrome Forecast
Issued by NWS

Home | Current Version | Previous Version | Graphics & Text | Print | Product List | Glossary On
Versions: 1 2 3 4 5 6 7 8 9 10 11 12 13 14 15
170
FTUS41 KCLE 191730
TAFFDY
TAF
KFDY 191730Z 1918/2018 28007KT P6SM SCT040
     FM192100 27006KT P6SM VCTS SCT040CB
     FM200000 28005KT P6SM SCT120 BKN250
     FM200800 00000KT 3SM BR SCT040 BKN120
      TEMPO 2010/2013 1 1/2SM BR
     FM201400 24007KT 6SM HZ BKN040=

USA.gov is the U.S. government's official web portal to all federal, state and local government web resources and services.